sensor_id;sensor_type;location;lat;lon;timestamp;pressure;altitude;pressure_sealevel;temperature;humidity
86342;BME280;76997;51.520;11.962;2024-03-29T00:04:05;98976.47;;;6.20793;68.9873
86342;BME280;76997;51.520;11.962;2024-03-29T00:09:05;98982.91;;;6.28957;68.0498
86342;BME280;76997;51.520;11.962;2024-03-29T00:14:05;98982.77;;;6.322773;67.71777
86342;BME280;76997;51.520;11.962;2024-03-29T00:19:05;98984.95;;;6.274336;67.8584
86342;BME280;76997;51.520;11.962;2024-03-29T00:24:05;98992.05;;;6.266719;67.71973
86342;BME280;76997;51.520;11.962;2024-03-29T00:29:05;98989.56;;;6.26418;67.4873
86342;BME280;76997;51.520;11.962;2024-03-29T00:34:05;98989.63;;;6.228437;67.4707
86342;BME280;76997;51.520;11.962;2024-03-29T00:39:05;98982.91;;;6.28957;66.74023
86342;BME280;76997;51.520;11.962;2024-03-29T00:44:05;98975.84;;;6.437812;65.60156
86342;BME280;76997;51.520;11.962;2024-03-29T00:49:05;98967.5;;;6.427461;65.4209
86342;BME280;76997;51.520;11.962;2024-03-29T00:54:05;98974.62;;;6.463203;65.07715
86342;BME280;76997;51.520;11.962;2024-03-29T00:59:09;98979.97;;;6.366328;65.37012
86342;BME280;76997;51.520;11.962;2024-03-29T01:04:05;98989.5;;;6.294844;65.86523
86342;BME280;76997;51.520;11.962;2024-03-29T01:09:06;99007.38;;;6.271797;65.68262
86342;BME280;76997;51.520;11.962;2024-03-29T01:14:06;99009.6;;;6.243672;65.43457
86342;BME280;76997;51.520;11.962;2024-03-29T01:19:05;99002.64;;;6.213008;65.6748
86342;BME280;76997;51.520;11.962;2024-03-29T01:24:05;99012.22;;;6.241133;65.0752
86342;BME280;76997;51.520;11.962;2024-03-29T01:29:05;99012.88;;;6.110859;65.99512
86342;BME280;76997;51.520;11.962;2024-03-29T01:34:05;99014.48;;;6.279414;64.51172
86342;BME280;76997;51.520;11.962;2024-03-29T01:39:05;99007.7;;;6.473555;63.6416
86342;BME280;76997;51.520;11.962;2024-03-29T01:44:09;99011.17;;;6.570625;63.19043
86342;BME280;76997;51.520;11.962;2024-03-29T01:49:06;99015.48;;;6.721211;62.22754
86342;BME280;76997;51.520;11.962;2024-03-29T01:54:06;99010.77;;;6.539961;63.18555
86342;BME280;76997;51.520;11.962;2024-03-29T01:59:08;99013.09;;;6.496406;63.24219
86342;BME280;76997;51.520;11.962;2024-03-29T02:04:09;98997.89;;;6.424922;63.31543
86342;BME280;76997;51.520;11.962;2024-03-29T02:09:05;99010.16;;;6.297383;63.75195
86342;BME280;76997;51.520;11.962;2024-03-29T02:14:05;99025.06;;;6.350898;63.30566
86342;BME280;76997;51.520;11.962;2024-03-29T02:19:05;99019.44;;;6.330586;63.11328
86342;BME280;76997;51.520;11.962;2024-03-29T02:24:08;99030.91;;;6.115938;63.87402
86342;BME280;76997;51.520;11.962;2024-03-29T02:29:05;99022.26;;;5.965352;64.64453
86342;BME280;76997;51.520;11.962;2024-03-29T02:34:09;99034.91;;;5.814375;65.43262
86342;BME280;76997;51.520;11.962;2024-03-29T02:39:09;99029.05;;;5.972969;64.81348
86342;BME280;76997;51.520;11.962;2024-03-29T02:44:05;99037.17;;;5.944844;65.09375
86342;BME280;76997;51.520;11.962;2024-03-29T02:49:05;99039.31;;;5.937227;65.2832
86342;BME280;76997;51.520;11.962;2024-03-29T02:54:05;99039.38;;;5.929609;65.55566
86342;BME280;76997;51.520;11.962;2024-03-29T02:59:05;99029.19;;;6.046992;64.99414
86342;BME280;76997;51.520;11.962;2024-03-29T03:04:05;99022.17;;;6.177266;64.49512
86342;BME280;76997;51.520;11.962;2024-03-29T03:09:05;99029.08;;;6.38918;63.2373
86342;BME280;76997;51.520;11.962;2024-03-29T03:14:09;99007.56;;;6.455586;62.97266
86342;BME280;76997;51.520;11.962;2024-03-29T03:19:05;99011.95;;;6.509297;62.81152
86342;BME280;76997;51.520;11.962;2024-03-29T03:24:09;99007.47;;;6.593477;62.16797
86342;BME280;76997;51.520;11.962;2024-03-29T03:29:05;99013.11;;;6.557735;62.35156
86342;BME280;76997;51.520;11.962;2024-03-29T03:34:09;99004.92;;;6.504219;63.26465
86342;BME280;76997;51.520;11.962;2024-03-29T03:39:05;98988.18;;;6.48625;62.65918
86342;BME280;76997;51.520;11.962;2024-03-29T03:44:05;98984.63;;;6.386641;63.22754
86342;BME280;76997;51.520;11.962;2024-03-29T03:49:05;98988.83;;;6.317695;63.40625
86342;BME280;76997;51.520;11.962;2024-03-29T03:54:05;98982.36;;;6.366328;63.20313
86342;BME280;76997;51.520;11.962;2024-03-29T03:59:05;98975.42;;;6.340742;63.52637
86342;BME280;76997;51.520;11.962;2024-03-29T04:04:05;98980.89;;;6.271797;63.97168
86342;BME280;76997;51.520;11.962;2024-03-29T04:09:05;98986.74;;;6.172187;64.36816
86342;BME280;76997;51.520;11.962;2024-03-29T04:14:05;98980.7;;;6.041914;65.04492
86342;BME280;76997;51.520;11.962;2024-03-29T04:19:09;98976.09;;;6.075117;64.93457
86342;BME280;76997;51.520;11.962;2024-03-29T04:24:05;98978.86;;;6.062422;64.98438
86342;BME280;76997;51.520;11.962;2024-03-29T04:29:05;98962.33;;;6.115938;64.62402
86342;BME280;76997;51.520;11.962;2024-03-29T04:34:05;98974.58;;;6.077656;64.56543
86342;BME280;76997;51.520;11.962;2024-03-29T04:39:05;98956.58;;;6.162031;64.11328
86342;BME280;76997;51.520;11.962;2024-03-29T04:44:05;98947.34;;;6.195234;63.92676
86342;BME280;76997;51.520;11.962;2024-03-29T04:49:05;98949.65;;;6.343281;63.52637
86342;BME280;76997;51.520;11.962;2024-03-29T04:54:05;98972.04;;;6.223164;64.14258
86342;BME280;76997;51.520;11.962;2024-03-29T04:59:09;98979.45;;;6.361055;63.11719
86342;BME280;76997;51.520;11.962;2024-03-29T05:04:09;98969.89;;;6.478633;62.52148
86342;BME280;76997;51.520;11.962;2024-03-29T05:09:05;98968.54;;;6.481172;62.81738
86342;BME280;76997;51.520;11.962;2024-03-29T05:14:05;98967.05;;;6.521992;62.64355
86342;BME280;76997;51.520;11.962;2024-03-29T05:19:05;98977.39;;;6.629219;61.90723
86342;BME280;76997;51.520;11.962;2024-03-29T05:24:05;98987.77;;;6.662422;61.51074
86342;BME280;76997;51.520;11.962;2024-03-29T05:29:09;99000.16;;;6.726289;61.7207
86342;BME280;76997;51.520;11.962;2024-03-29T05:34:09;99008.8;;;6.848945;60.8584
86342;BME280;76997;51.520;11.962;2024-03-29T05:39:05;99019.08;;;6.935664;60.36328
86342;BME280;76997;51.520;11.962;2024-03-29T05:44:05;99006.22;;;7.0175;60.08789
86342;BME280;76997;51.520;11.962;2024-03-29T05:49:05;99022.92;;;7.058321;59.97656
86342;BME280;76997;51.520;11.962;2024-03-29T05:54:05;99036.98;;;7.030195;60.40723
86342;BME280;76997;51.520;11.962;2024-03-29T05:59:05;99039.23;;;7.063398;60.37012
86342;BME280;76997;51.520;11.962;2024-03-29T06:04:05;99020.56;;;7.134883;60.57129
86342;BME280;76997;51.520;11.962;2024-03-29T06:09:05;99006.48;;;7.186055;60.03711
86342;BME280;76997;51.520;11.962;2024-03-29T06:14:05;99001.98;;;7.38;59.39648
86342;BME280;76997;51.520;11.962;2024-03-29T06:19:09;99018.69;;;7.538398;58.55859
86342;BME280;76997;51.520;11.962;2024-03-29T06:24:05;99021.79;;;7.696797;58.00586
86342;BME280;76997;51.520;11.962;2024-03-29T06:29:05;99024.67;;;7.773359;57.97363
86342;BME280;76997;51.520;11.962;2024-03-29T06:34:05;99027.06;;;7.834688;57.7793
86342;BME280;76997;51.520;11.962;2024-03-29T06:39:05;99014.91;;;7.982734;56.93848
86342;BME280;76997;51.520;11.962;2024-03-29T06:44:09;99000.95;;;8.235469;56.66309
86342;BME280;76997;51.520;11.962;2024-03-29T06:49:05;99010.52;;;8.434883;55.56055
86342;BME280;76997;51.520;11.962;2024-03-29T06:54:05;98989.97;;;8.784687;54.30469
86342;BME280;76997;51.520;11.962;2024-03-29T06:59:05;99006.61;;;8.93293;54.83496
86342;BME280;76997;51.520;11.962;2024-03-29T07:04:05;99015.14;;;8.65461;55.48242
86342;BME280;76997;51.520;11.962;2024-03-29T07:09:05;99013.39;;;8.669844;55.04688
86342;BME280;76997;51.520;11.962;2024-03-29T07:14:05;99009.95;;;8.667305;55.22754
86342;BME280;76997;51.520;11.962;2024-03-29T07:19:05;98996.23;;;8.577851;55.26855
86342;BME280;76997;51.520;11.962;2024-03-29T07:24:05;98999.72;;;8.639179;55.4707
86342;BME280;76997;51.520;11.962;2024-03-29T07:29:09;99009.27;;;8.902266;54.31934
86342;BME280;76997;51.520;11.962;2024-03-29T07:34:05;99031.94;;;8.899727;54.21289
86342;BME280;76997;51.520;11.962;2024-03-29T07:39:09;99056.98;;;9.022187;54.3457
86342;BME280;76997;51.520;11.962;2024-03-29T07:44:05;99064.75;;;9.01457;54.88867
86342;BME280;76997;51.520;11.962;2024-03-29T07:49:05;99085.13;;;8.991524;55.50293
86342;BME280;76997;51.520;11.962;2024-03-29T07:54:05;99099.83;;;9.047773;56.42773
86342;BME280;76997;51.520;11.962;2024-03-29T07:59:05;99105.68;;;9.045235;55.47852
86342;BME280;76997;51.520;11.962;2024-03-29T08:04:05;99100.59;;;8.902266;56.95215
86342;BME280;76997;51.520;11.962;2024-03-29T08:09:05;99098.94;;;8.871601;57.20313
86342;BME280;76997;51.520;11.962;2024-03-29T08:14:05;99088;;;8.93293;58.30957
86342;BME280;76997;51.520;11.962;2024-03-29T08:19:09;99092.98;;;8.943086;59.51367
86342;BME280;76997;51.520;11.962;2024-03-29T08:24:05;99094.61;;;8.925118;59.44824
86342;BME280;76997;51.520;11.962;2024-03-29T08:29:05;99085.27;;;9.063007;60.18066
86342;BME280;76997;51.520;11.962;2024-03-29T08:34:05;99074.22;;;9.144844;60.04199
86342;BME280;76997;51.520;11.962;2024-03-29T08:39:05;99069.02;;;9.515156;58.50488
86342;BME280;76997;51.520;11.962;2024-03-29T08:44:06;99057.1;;;10.11769;56.3418
86342;BME280;76997;51.520;11.962;2024-03-29T08:49:05;99064.02;;;10.44992;55.21875
86342;BME280;76997;51.520;11.962;2024-03-29T08:54:05;99070.22;;;10.34016;56.08301
86342;BME280;76997;51.520;11.962;2024-03-29T08:59:05;99069.08;;;10.27121;55.93457
86342;BME280;76997;51.520;11.962;2024-03-29T09:04:05;99067.88;;;10.27883;56.79102
86342;BME280;76997;51.520;11.962;2024-03-29T09:09:05;99064.18;;;10.18156;57.36621
86342;BME280;76997;51.520;11.962;2024-03-29T09:14:05;99047.89;;;10.27121;56.12695
86342;BME280;76997;51.520;11.962;2024-03-29T09:19:05;99037.84;;;10.70539;55.08008
86342;BME280;76997;51.520;11.962;2024-03-29T09:24:05;99032.06;;;11.03215;54.58691
86342;BME280;76997;51.520;11.962;2024-03-29T09:29:05;99037;;;11.11906;53.52539
86342;BME280;76997;51.520;11.962;2024-03-29T09:34:05;99027.13;;;11.06281;55.21191
86342;BME280;76997;51.520;11.962;2024-03-29T09:39:05;99015.63;;;11.05519;54.77148
86342;BME280;76997;51.520;11.962;2024-03-29T09:44:05;99018.56;;;11.38449;54.21191
86342;BME280;76997;51.520;11.962;2024-03-29T09:49:09;99011.14;;;11.18019;54.00391
86342;BME280;76997;51.520;11.962;2024-03-29T09:54:06;99023.41;;;11.11652;53.63184
86342;BME280;76997;51.520;11.962;2024-03-29T09:59:05;99010.31;;;11.24914;53.59375
86342;BME280;76997;51.520;11.962;2024-03-29T10:04:05;98991.27;;;11.6552;52.65625
86342;BME280;76997;51.520;11.962;2024-03-29T10:09:05;98992.84;;;11.59914;51.58789
86342;BME280;76997;51.520;11.962;2024-03-29T10:14:05;98990.48;;;11.68586;52.92969
86342;BME280;76997;51.520;11.962;2024-03-29T10:19:05;98995.55;;;11.6884;51.68359
86342;BME280;76997;51.520;11.962;2024-03-29T10:24:14;98997.91;;;11.62707;52.18164
86342;BME280;76997;51.520;11.962;2024-03-29T10:29:05;99000.83;;;11.76242;50.18848
86342;BME280;76997;51.520;11.962;2024-03-29T10:34:10;99000.09;;;11.62453;50.46191
86342;BME280;76997;51.520;11.962;2024-03-29T10:39:09;99009.29;;;11.93898;49.7041
86342;BME280;76997;51.520;11.962;2024-03-29T10:44:08;99008.72;;;12.08703;49.06348
86342;BME280;76997;51.520;11.962;2024-03-29T10:49:05;99014;;;12.33723;48.06836
86342;BME280;76997;51.520;11.962;2024-03-29T10:54:05;99014.73;;;12.17902;47.63184
86342;BME280;76997;51.520;11.962;2024-03-29T10:59:11;99011.77;;;12.40871;47.89355
86342;BME280;76997;51.520;11.962;2024-03-29T11:04:09;99012.81;;;12.85559;46.54102
86342;BME280;76997;51.520;11.962;2024-03-29T11:09:13;99016.48;;;13.27473;45.47363
86342;BME280;76997;51.520;11.962;2024-03-29T11:14:08;99000.81;;;13.60656;45.18359
86342;BME280;76997;51.520;11.962;2024-03-29T11:19:05;98993.41;;;13.42785;45.99707
86342;BME280;76997;51.520;11.962;2024-03-29T11:24:05;98996.64;;;14.0382;43.9834
86342;BME280;76997;51.520;11.962;2024-03-29T11:29:05;98993.4;;;14.61047;42.19824
86342;BME280;76997;51.520;11.962;2024-03-29T11:34:08;98979.3;;;14.63078;41.89648
86342;BME280;76997;51.520;11.962;2024-03-29T11:39:05;98980.8;;;14.49269;41.90527
86342;BME280;76997;51.520;11.962;2024-03-29T11:44:05;98978.81;;;14.51086;41.36426
86342;BME280;76997;51.520;11.962;2024-03-29T11:49:05;98977.7;;;14.60012;40.82031
86342;BME280;76997;51.520;11.962;2024-03-29T11:54:05;98973.47;;;14.53645;41.17188
86342;BME280;76997;51.520;11.962;2024-03-29T11:59:05;98965.83;;;14.77394;40.32617
86342;BME280;76997;51.520;11.962;2024-03-29T12:04:05;98950;;;15.64465;38.86133
86342;BME280;76997;51.520;11.962;2024-03-29T12:09:09;98970.63;;;16.49777;37.65039
86342;BME280;76997;51.520;11.962;2024-03-29T12:14:11;98959.66;;;17.06496;35.62402
86342;BME280;76997;51.520;11.962;2024-03-29T12:19:05;98961.56;;;17.03176;36.33105
86342;BME280;76997;51.520;11.962;2024-03-29T12:24:05;98938.88;;;17.21047;35.91895
86342;BME280;76997;51.520;11.962;2024-03-29T12:29:07;98943.56;;;17.59855;35.4043
86342;BME280;76997;51.520;11.962;2024-03-29T12:34:05;98954.14;;;17.64719;36.30469
86342;BME280;76997;51.520;11.962;2024-03-29T12:39:05;98974.68;;;16.81711;38.75781
86342;BME280;76997;51.520;11.962;2024-03-29T12:44:05;98965.52;;;15.42766;42.05957
86342;BME280;76997;51.520;11.962;2024-03-29T12:49:05;98954.88;;;15.46086;42.72559
86342;BME280;76997;51.520;11.962;2024-03-29T12:54:05;98985.75;;;15.32805;43.21191
86342;BME280;76997;51.520;11.962;2024-03-29T12:59:05;98952.98;;;15.11613;44.56836
86342;BME280;76997;51.520;11.962;2024-03-29T13:04:09;98948.38;;;15.56555;44.14746
86342;BME280;76997;51.520;11.962;2024-03-29T13:09:05;98940.75;;;16.06105;43.83789
86342;BME280;76997;51.520;11.962;2024-03-29T13:14:05;98954.83;;;15.78527;44.66992
86342;BME280;76997;51.520;11.962;2024-03-29T13:19:05;98948.93;;;15.0802;46.45215
86342;BME280;76997;51.520;11.962;2024-03-29T13:24:05;98941.89;;;14.77394;47.57813
86342;BME280;76997;51.520;11.962;2024-03-29T13:29:05;98948.23;;;14.48508;48.53223
86342;BME280;76997;51.520;11.962;2024-03-29T13:34:05;98930.27;;;14.57727;48.76953
86342;BME280;76997;51.520;11.962;2024-03-29T13:39:05;98928.63;;;14.39563;49.7334
86342;BME280;76997;51.520;11.962;2024-03-29T13:44:05;98930.67;;;14.37277;50.4668
86342;BME280;76997;51.520;11.962;2024-03-29T13:49:05;98944.33;;;14.4009;50.62109
86342;BME280;76997;51.520;11.962;2024-03-29T13:54:05;98916.33;;;14.30129;51.46289
86342;BME280;76997;51.520;11.962;2024-03-29T13:59:05;98908.09;;;14.25012;51.79199
86342;BME280;76997;51.520;11.962;2024-03-29T14:04:05;98939.86;;;14.64621;51.07129
86342;BME280;76997;51.520;11.962;2024-03-29T14:09:05;98954.29;;;14.83;50.70313
86342;BME280;76997;51.520;11.962;2024-03-29T14:14:05;98968.84;;;14.72023;51.64258
86342;BME280;76997;51.520;11.962;2024-03-29T14:19:05;98966.63;;;14.40598;52.50293
86342;BME280;76997;51.520;11.962;2024-03-29T14:24:05;98980.48;;;14.50305;52.84961
86342;BME280;76997;51.520;11.962;2024-03-29T14:29:05;98986.41;;;14.68195;53.02246
86342;BME280;76997;51.520;11.962;2024-03-29T14:34:05;98999.11;;;14.41105;54.20996
86342;BME280;76997;51.520;11.962;2024-03-29T14:39:05;98984.72;;;14.17863;54.73242
86342;BME280;76997;51.520;11.962;2024-03-29T14:44:05;99001.28;;;13.92336;56.84473
86342;BME280;76997;51.520;11.962;2024-03-29T14:49:05;99001.53;;;13.67043;60.08594
86342;BME280;76997;51.520;11.962;2024-03-29T14:54:05;99004.78;;;13.35891;60.25879
86342;BME280;76997;51.520;11.962;2024-03-29T14:59:06;98985.45;;;13.23352;62.54199
86342;BME280;76997;51.520;11.962;2024-03-29T15:04:05;98992.35;;;13.2466;61.5332
86342;BME280;76997;51.520;11.962;2024-03-29T15:09:05;99008.6;;;13.19016;60.6543
86342;BME280;76997;51.520;11.962;2024-03-29T15:14:09;99023.99;;;13.08547;63.40234
86342;BME280;76997;51.520;11.962;2024-03-29T15:19:05;99019.95;;;13.04973;63.00879
86342;BME280;76997;51.520;11.962;2024-03-29T15:24:05;99029.78;;;12.98332;62.33301
86342;BME280;76997;51.520;11.962;2024-03-29T15:29:05;99045.34;;;12.93488;62.68066
86342;BME280;76997;51.520;11.962;2024-03-29T15:34:05;99047.08;;;13.1468;62.19629
86342;BME280;76997;51.520;11.962;2024-03-29T15:39:05;99034.73;;;13.51477;60.73242
86342;BME280;76997;51.520;11.962;2024-03-29T15:44:05;99024.88;;;13.4841;61.06055
86342;BME280;76997;51.520;11.962;2024-03-29T15:49:04;99033.98;;;13.28742;61.51855
86342;BME280;76997;51.520;11.962;2024-03-29T15:54:05;99025.64;;;13.2132;62.73242
86342;BME280;76997;51.520;11.962;2024-03-29T15:59:05;99012.45;;;13.05227;63.42871
86342;BME280;76997;51.520;11.962;2024-03-29T16:04:05;99014.39;;;13.05734;63.27832
86342;BME280;76997;51.520;11.962;2024-03-29T16:09:05;99005.5;;;12.9552;63.5752
86342;BME280;76997;51.520;11.962;2024-03-29T16:14:05;99020.98;;;12.98586;63.37598
86342;BME280;76997;51.520;11.962;2024-03-29T16:19:04;99020.51;;;12.9298;64.34473
86342;BME280;76997;51.520;11.962;2024-03-29T16:24:05;99021.15;;;12.93996;64.38867
86342;BME280;76997;51.520;11.962;2024-03-29T16:29:05;99023.34;;;13.01906;64.25
86342;BME280;76997;51.520;11.962;2024-03-29T16:34:05;99014;;;13.02941;64.72363
86342;BME280;76997;51.520;11.962;2024-03-29T16:39:08;99020.93;;;13.12629;64.10547
86342;BME280;76997;51.520;11.962;2024-03-29T16:44:05;99020.39;;;13.16984;63.66016
86342;BME280;76997;51.520;11.962;2024-03-29T16:49:05;99024.27;;;13.17492;63.30664
86342;BME280;76997;51.520;11.962;2024-03-29T16:54:05;99024.27;;;13.21066;62.96777
86342;BME280;76997;51.520;11.962;2024-03-29T16:59:05;99028.22;;;13.2132;63.08691
86342;BME280;76997;51.520;11.962;2024-03-29T17:04:05;99025.63;;;13.1927;62.86914
86342;BME280;76997;51.520;11.962;2024-03-29T17:09:05;99017.93;;;13.24406;62.88672
86342;BME280;76997;51.520;11.962;2024-03-29T17:14:05;99021.66;;;13.08801;63.40234
86342;BME280;76997;51.520;11.962;2024-03-29T17:19:04;99017.62;;;13.09309;63.72461
86342;BME280;76997;51.520;11.962;2024-03-29T17:24:05;99019.3;;;13.02414;63.79883
86342;BME280;76997;51.520;11.962;2024-03-29T17:29:04;99030.54;;;12.81477;64.6709
86342;BME280;76997;51.520;11.962;2024-03-29T17:34:09;99045.49;;;12.7177;64.9668
86342;BME280;76997;51.520;11.962;2024-03-29T17:39:04;99043.23;;;12.66672;65.26074
86342;BME280;76997;51.520;11.962;2024-03-29T17:44:09;99036.27;;;12.60539;65.87305
86342;BME280;76997;51.520;11.962;2024-03-29T17:49:08;99030.67;;;12.5007;66.35059
86342;BME280;76997;51.520;11.962;2024-03-29T17:54:08;99030.5;;;12.46496;66.41895
86342;BME280;76997;51.520;11.962;2024-03-29T17:59:08;99035.42;;;12.50832;66.61816
86342;BME280;76997;51.520;11.962;2024-03-29T18:04:04;99037.8;;;12.79445;65.24805
86342;BME280;76997;51.520;11.962;2024-03-29T18:09:04;99053.5;;;12.78156;65.03027
86342;BME280;76997;51.520;11.962;2024-03-29T18:14:09;99057.14;;;12.81477;64.91797
86342;BME280;76997;51.520;11.962;2024-03-29T18:19:08;99054.69;;;12.93996;64.48535
86342;BME280;76997;51.520;11.962;2024-03-29T18:24:05;99053.98;;;13.0548;64.83496
86342;BME280;76997;51.520;11.962;2024-03-29T18:29:04;99035.92;;;13.05988;65.39453
86342;BME280;76997;51.520;11.962;2024-03-29T18:34:04;99041.36;;;12.88625;66.84766
86342;BME280;76997;51.520;11.962;2024-03-29T18:39:04;99043.97;;;12.69484;68.05078
86342;BME280;76997;51.520;11.962;2024-03-29T18:44:04;99029.36;;;12.63098;68.65137
86342;BME280;76997;51.520;11.962;2024-03-29T18:49:04;99031.16;;;12.49562;69.31543
86342;BME280;76997;51.520;11.962;2024-03-29T18:54:04;99049.64;;;12.38332;69.71484
86342;BME280;76997;51.520;11.962;2024-03-29T18:59:08;99068.2;;;12.27863;69.94434
86342;BME280;76997;51.520;11.962;2024-03-29T19:04:04;99077.2;;;12.24797;70.16406
86342;BME280;76997;51.520;11.962;2024-03-29T19:09:04;99087.63;;;12.18156;70.60352
86342;BME280;76997;51.520;11.962;2024-03-29T19:14:04;99082.69;;;12.16867;70.8457
86342;BME280;76997;51.520;11.962;2024-03-29T19:19:08;99094.42;;;12.12277;70.92578
86342;BME280;76997;51.520;11.962;2024-03-29T19:24:05;99101.3;;;11.95676;71.3252
86342;BME280;76997;51.520;11.962;2024-03-29T19:29:04;99107.44;;;11.82375;71.87988
86342;BME280;76997;51.520;11.962;2024-03-29T19:34:05;99111.67;;;11.68586;72.33887
86342;BME280;76997;51.520;11.962;2024-03-29T19:39:08;99119.43;;;11.54797;73.0625
86342;BME280;76997;51.520;11.962;2024-03-29T19:44:04;99120.45;;;11.4509;73.59082
86342;BME280;76997;51.520;11.962;2024-03-29T19:49:05;99120.92;;;11.27219;74.14648
86342;BME280;76997;51.520;11.962;2024-03-29T19:54:05;99121.3;;;11.02707;75.02051
86342;BME280;76997;51.520;11.962;2024-03-29T19:59:04;99124.23;;;10.86105;75.53613
86342;BME280;76997;51.520;11.962;2024-03-29T20:04:04;99124.25;;;10.68488;76.16504
86342;BME280;76997;51.520;11.962;2024-03-29T20:09:04;99120;;;10.45246;77.32617
86342;BME280;76997;51.520;11.962;2024-03-29T20:14:04;99127.91;;;10.31711;77.81152
86342;BME280;76997;51.520;11.962;2024-03-29T20:19:04;99122.53;;;10.16379;78.23047
86342;BME280;76997;51.520;11.962;2024-03-29T20:24:05;99110.45;;;10.15344;77.93164
86342;BME280;76997;51.520;11.962;2024-03-29T20:29:04;99105.73;;;10.10754;78.08203
86342;BME280;76997;51.520;11.962;2024-03-29T20:34:04;99100.27;;;9.990156;78.36914
86342;BME280;76997;51.520;11.962;2024-03-29T20:39:04;99096.3;;;9.859882;78.27148
86342;BME280;76997;51.520;11.962;2024-03-29T20:44:04;99103.77;;;9.635078;78.90918
86342;BME280;76997;51.520;11.962;2024-03-29T20:49:04;99106.52;;;9.504805;79.54199
86342;BME280;76997;51.520;11.962;2024-03-29T20:54:04;99106.19;;;9.829219;79.2207
86342;BME280;76997;51.520;11.962;2024-03-29T20:59:04;99108.83;;;9.502266;78.80078
86342;BME280;76997;51.520;11.962;2024-03-29T21:04:04;99111.22;;;9.05793;80.53027
86342;BME280;76997;51.520;11.962;2024-03-29T21:09:04;99113.22;;;9.001875;81.02734
86342;BME280;76997;51.520;11.962;2024-03-29T21:14:04;99110.16;;;8.925118;81.58691
86342;BME280;76997;51.520;11.962;2024-03-29T21:19:08;99107.77;;;9.045235;81.56543
86342;BME280;76997;51.520;11.962;2024-03-29T21:24:05;99119.08;;;9.009492;80.7334
86342;BME280;76997;51.520;11.962;2024-03-29T21:29:04;99117.2;;;8.914961;81.45605
86342;BME280;76997;51.520;11.962;2024-03-29T21:34:04;99122.39;;;8.863984;81.84961
86342;BME280;76997;51.520;11.962;2024-03-29T21:39:04;99121.39;;;8.891914;82.30957
86342;BME280;76997;51.520;11.962;2024-03-29T21:44:04;99116.34;;;8.764375;82.42188
86342;BME280;76997;51.520;11.962;2024-03-29T21:49:04;99122.51;;;8.805195;82.7373
86342;BME280;76997;51.520;11.962;2024-03-29T21:54:08;99127.24;;;8.856172;82.89453
86342;BME280;76997;51.520;11.962;2024-03-29T21:59:04;99136.17;;;8.858906;82.59961
86342;BME280;76997;51.520;11.962;2024-03-29T22:04:04;99130.05;;;8.810273;81.88086
86342;BME280;76997;51.520;11.962;2024-03-29T22:09:04;99128.7;;;8.789765;81.63379
86342;BME280;76997;51.520;11.962;2024-03-29T22:14:04;99131.13;;;8.593281;81.32324
86342;BME280;76997;51.520;11.962;2024-03-29T22:19:04;99126.52;;;8.547188;82.11816
86342;BME280;76997;51.520;11.962;2024-03-29T22:24:05;99126.91;;;8.506367;81.9082
86342;BME280;76997;51.520;11.962;2024-03-29T22:29:04;99135.7;;;8.486054;81.79883
86342;BME280;76997;51.520;11.962;2024-03-29T22:34:04;99146.67;;;8.460468;81.91211
86342;BME280;76997;51.520;11.962;2024-03-29T22:39:04;99136.14;;;8.447578;82.00293
86342;BME280;76997;51.520;11.962;2024-03-29T22:44:04;99137.39;;;8.422188;82.08203
86342;BME280;76997;51.520;11.962;2024-03-29T22:49:04;99134.42;;;8.452851;82.97656
86342;BME280;76997;51.520;11.962;2024-03-29T22:54:08;99126.55;;;8.552461;82.9209
86342;BME280;76997;51.520;11.962;2024-03-29T22:59:04;99123.7;;;8.381367;82.45605
86342;BME280;76997;51.520;11.962;2024-03-29T23:04:04;99121.48;;;8.27375;83.44922
86342;BME280;76997;51.520;11.962;2024-03-29T23:09:04;99124.8;;;8.143672;83.13867
86342;BME280;76997;51.520;11.962;2024-03-29T23:14:04;99124.92;;;8.13332;83.33789
86342;BME280;76997;51.520;11.962;2024-03-29T23:19:04;99126.67;;;8.161446;83.17383
86342;BME280;76997;51.520;11.962;2024-03-29T23:24:04;99126.99;;;8.232929;83.04102
86342;BME280;76997;51.520;11.962;2024-03-29T23:29:06;99122.91;;;8.230391;82.7959
86342;BME280;76997;51.520;11.962;2024-03-29T23:34:04;99128.2;;;8.235469;82.61816
86342;BME280;76997;51.520;11.962;2024-03-29T23:39:04;99129.06;;;8.18957;82.46191
86342;BME280;76997;51.520;11.962;2024-03-29T23:44:08;99126.45;;;8.174141;82.61621
86342;BME280;76997;51.520;11.962;2024-03-29T23:49:04;99114.28;;;8.135859;82.78906
86342;BME280;76997;51.520;11.962;2024-03-29T23:54:04;99107.31;;;8.128242;82.77637
86342;BME280;76997;51.520;11.962;2024-03-29T23:59:04;99110.28;;;8.135859;82.98926
